This is the latest recevied weather packets stored in our database for station/object WE8M. If no packets are shown the sender has not sent any weather packets the latest 10 day(s).
| Time | Temp. | Humidity | Pressure | Rain* | Wind** | Luminosity | Snow |
|---|---|---|---|---|---|---|---|
| 1777732737 | 8.89° C | 57% | 1018.2 hPa | 0 mm | - | - | - |
| 1777732434 | 8.89° C | 50% | 1018.3 hPa | 0 mm | - | - | - |
| 1777732131 | 8.33° C | 60% | 1017.9 hPa | 0 mm | - | - | - |
| 1777731828 | 8.33° C | 56% | 1018.1 hPa | 0 mm | - | - | - |
| 1777731525 | 8.33° C | 62% | 1018 hPa | 0 mm | - | - | - |
| 1777731223 | 8.33° C | 64% | 1018.2 hPa | 0 mm | - | - | - |
| 1777730920 | 8.33° C | 64% | 1018.1 hPa | 0 mm | - | - | - |
| 1777730618 | 8.33° C | 61% | 1018.2 hPa | 0 mm | - | - | - |
| 1777730314 | 7.78° C | 61% | 1017.9 hPa | 0 mm | - | - | - |
| 1777730011 | 7.78° C | 67% | 1017.6 hPa | 0 mm | - | - | - |
| 1777729707 | 7.78° C | 62% | 1017.8 hPa | 0 mm | - | - | - |
| 1777729404 | 7.22° C | 65% | 1018 hPa | 0 mm | - | - | - |
| 1777729100 | 7.22° C | 65% | 1017.8 hPa | 0 mm | - | - | - |
| 1777728797 | 7.22° C | 63% | 1017.9 hPa | 0 mm | - | - | - |
| 1777728494 | 6.67° C | 66% | 1017.8 hPa | 0 mm | - | - | - |
| 1777728192 | 6.67° C | 70% | 1017.9 hPa | 0 mm | - | - | - |
| 1777727888 | 6.67° C | 67% | 1018 hPa | 0 mm | - | - | - |
| 1777727585 | 6.67° C | 69% | 1017.9 hPa | 0 mm | - | - | - |
| 1777727282 | 6.11° C | 71% | 1018 hPa | 0 mm | - | - | - |
| 1777726980 | 5.56° C | 75% | 1017.8 hPa | 0 mm | - | - | - |
| 1777726676 | 5.56° C | 77% | 1018 hPa | 0 mm | - | - | - |
| 1777726374 | 5.56° C | 75% | 1018.1 hPa | 0 mm | - | - | - |
| 1777726070 | 5.56° C | 74% | 1017.9 hPa | 0 mm | - | - | - |
| 1777725767 | 5.56° C | 76% | 1017.7 hPa | 0 mm | - | - | - |
| 1777725466 | 5.56° C | 74% | 1017.7 hPa | 0 mm | - | - | - |
* Rain latest hour (hover to see other rain measurements)
** Current wind speed in m/s (hover to see current wind gust speed)